Time;durP1;ratioP1;P1;durP2;ratioP2;P2;SDS_P1;SDS_P2;PMS_P1;PMS_P2;Temp;Humidity;BMP_temperature;BMP_pressure;BME280_temperature;BME280_humidity;BME280_pressure;Samples;Min_cycle;Max_cycle;Signal;HPM_P1;HPM_P2
2023/05/27 08:27:49;;;;;;;;;14.75;13.25;;;;;;;;5597540;22;12046;-75
2023/05/27 08:30:14;;;;;;;;;8.00;7.00;;;;;;;;6375360;22;11361;-72
2023/05/27 08:32:40;;;;;;;;;9.50;6.75;;;;;;;;6374902;22;11429;-72
2023/05/27 08:35:05;;;;;;;;;5.50;5.00;;;;;;;;6376277;22;8754;-73
2023/05/27 08:37:31;;;;;;;;;10.25;9.00;;;;;;;;6376368;22;8817;-73
2023/05/27 08:39:57;;;;;;;;;6.75;6.00;;;;;;;;6376326;22;8837;-74
2023/05/27 08:42:23;;;;;;;;;18.75;12.75;;;;;;;;6375215;22;8732;-70
2023/05/27 08:44:48;;;;;;;;;6.00;6.00;;;;;;;;6376306;22;11412;-71
2023/05/27 08:47:14;;;;;;;;;15.50;9.75;;;;;;;;6375931;22;8825;-73
2023/05/27 08:49:40;;;;;;;;;7.75;7.75;;;;;;;;6376230;22;8720;-72
2023/05/27 08:52:06;;;;;;;;;10.50;9.25;;;;;;;;6375651;22;11811;-72
2023/05/27 08:54:33;;;;;;;;;13.00;9.50;;;;;;;;6375574;22;11339;-72
2023/05/27 08:56:59;;;;;;;;;8.00;7.25;;;;;;;;6375894;22;8728;-72
2023/05/27 08:59:25;;;;;;;;;6.25;6.25;;;;;;;;6375662;22;11328;-72
2023/05/27 09:01:50;;;;;;;;;13.00;11.00;;;;;;;;6375653;22;9512;-71
2023/05/27 09:04:15;;;;;;;;;6.25;5.50;;;;;;;;6375927;22;8759;-72
2023/05/27 09:06:41;;;;;;;;;9.00;9.00;;;;;;;;6376293;22;8791;-71
2023/05/27 09:09:07;;;;;;;;;10.25;8.50;;;;;;;;6347302;22;8760;-71
2023/05/27 09:11:35;;;;;;;;;10.25;7.00;;;;;;;;6375867;22;8752;-72
2023/05/27 09:14:00;;;;;;;;;10.00;7.50;;;;;;;;6375882;22;10980;-72
2023/05/27 09:16:25;;;;;;;;;10.25;8.75;;;;;;;;6376154;22;11065;-72
2023/05/27 09:18:51;;;;;;;;;7.25;7.00;;;;;;;;6376358;22;8900;-72
2023/05/27 09:21:16;;;;;;;;;10.50;9.25;;;;;;;;6376414;22;8732;-72
2023/05/27 09:23:41;;;;;;;;;9.00;8.25;;;;;;;;6376141;22;8767;-72
2023/05/27 09:26:10;;;;;;;;;6.75;5.00;;;;;;;;6376209;22;8752;-72
2023/05/27 09:28:36;;;;;;;;;9.75;8.75;;;;;;;;6376206;22;8849;-72
2023/05/27 09:31:04;;;;;;;;;10.00;10.00;;;;;;;;6375737;22;12007;-72
2023/05/27 09:33:34;;;;;;;;;11.25;10.25;;;;;;;;6375286;22;8708;-72
2023/05/27 09:36:01;;;;;;;;;5.25;3.25;;;;;;;;6375905;22;11330;-72
2023/05/27 09:38:28;;;;;;;;;8.50;8.25;;;;;;;;6375396;22;11014;-72
2023/05/27 09:40:53;;;;;;;;;5.75;5.00;;;;;;;;6375586;22;11308;-72
2023/05/27 09:43:19;;;;;;;;;9.50;9.25;;;;;;;;6375908;22;10959;-71
2023/05/27 09:45:44;;;;;;;;;10.50;10.00;;;;;;;;6375954;22;8736;-71
2023/05/27 09:48:10;;;;;;;;;8.75;8.50;;;;;;;;6376106;22;8802;-71
2023/05/27 09:50:37;;;;;;;;;12.25;7.75;;;;;;;;6375488;22;8732;-71
2023/05/27 09:53:04;;;;;;;;;9.00;8.25;;;;;;;;6375372;22;11350;-72
2023/05/27 09:55:30;;;;;;;;;13.00;13.00;;;;;;;;6374758;22;11342;-71
2023/05/27 09:57:55;;;;;;;;;9.00;8.00;;;;;;;;6375468;22;11329;-72
2023/05/27 10:00:20;;;;;;;;;10.00;9.00;;;;;;;;6376143;22;8854;-72
2023/05/27 10:02:46;;;;;;;;;9.00;8.50;;;;;;;;6347227;22;8837;-72
2023/05/27 10:05:12;;;;;;;;;11.50;9.25;;;;;;;;6376142;22;8739;-72
2023/05/27 10:07:40;;;;;;;;;12.00;9.00;;;;;;;;6375995;22;8732;-72
2023/05/27 10:10:07;;;;;;;;;11.25;9.25;;;;;;;;6347115;22;11041;-72
2023/05/27 10:12:32;;;;;;;;;8.50;8.00;;;;;;;;6375160;22;11181;-72
2023/05/27 10:14:58;;;;;;;;;11.00;8.25;;;;;;;;6375673;22;11310;-72
2023/05/27 10:17:23;;;;;;;;;11.75;10.00;;;;;;;;6375518;22;8836;-71
2023/05/27 10:19:52;;;;;;;;;11.25;10.25;;;;;;;;6347390;22;9836;-71
2023/05/27 10:22:20;;;;;;;;;11.75;11.75;;;;;;;;6347319;22;8736;-71
2023/05/27 10:24:47;;;;;;;;;7.25;7.25;;;;;;;;6374958;22;11389;-73
2023/05/27 10:27:12;;;;;;;;;9.50;8.00;;;;;;;;6374847;22;11007;-69
2023/05/27 10:29:38;;;;;;;;;13.00;9.75;;;;;;;;6375869;22;12040;-73
2023/05/27 10:32:03;;;;;;;;;13.50;13.25;;;;;;;;6375174;22;8759;-73
2023/05/27 10:34:35;;;;;;;;;15.50;14.25;;;;;;;;6375752;22;8751;-72
2023/05/27 10:37:01;;;;;;;;;10.25;8.25;;;;;;;;6375604;22;8825;-72
2023/05/27 10:39:26;;;;;;;;;9.00;8.00;;;;;;;;6346937;22;11344;-75
2023/05/27 10:41:53;;;;;;;;;14.50;10.50;;;;;;;;6375409;22;9519;-73
2023/05/27 10:44:28;;;;;;;;;11.75;8.25;;;;;;;;6375495;22;8720;-73
2023/05/27 10:46:59;;;;;;;;;12.50;11.50;;;;;;;;6375381;22;11052;-72
2023/05/27 10:49:25;;;;;;;;;11.25;9.75;;;;;;;;6374987;22;11409;-73
2023/05/27 10:51:51;;;;;;;;;11.75;9.75;;;;;;;;6375172;22;10953;-72
2023/05/27 10:54:16;;;;;;;;;11.50;9.50;;;;;;;;6375369;22;11179;-73
2023/05/27 10:56:50;;;;;;;;;9.25;6.75;;;;;;;;6375302;22;11156;-72
2023/05/27 10:59:19;;;;;;;;;7.50;6.00;;;;;;;;6375401;22;8817;-73
2023/05/27 11:01:44;;;;;;;;;10.75;9.25;;;;;;;;6375140;22;11107;-73
2023/05/27 11:04:10;;;;;;;;;9.75;9.25;;;;;;;;6375601;22;11225;-72
2023/05/27 11:06:35;;;;;;;;;10.50;10.00;;;;;;;;6374889;22;9169;-70
2023/05/27 11:09:00;;;;;;;;;8.75;8.75;;;;;;;;6375888;22;8865;-70
2023/05/27 11:11:26;;;;;;;;;12.50;12.00;;;;;;;;6375414;22;8838;-70
2023/05/27 11:13:51;;;;;;;;;11.50;10.00;;;;;;;;6375348;22;8732;-73
2023/05/27 11:16:16;;;;;;;;;12.00;12.00;;;;;;;;6374854;22;10797;-73
2023/05/27 11:18:43;;;;;;;;;9.25;7.25;;;;;;;;6375575;22;8747;-77
2023/05/27 11:21:09;;;;;;;;;9.25;9.25;;;;;;;;6375217;22;8748;-72
2023/05/27 11:23:43;;;;;;;;;8.50;7.50;;;;;;;;6374445;22;10804;-73
2023/05/27 11:26:15;;;;;;;;;13.75;10.75;;;;;;;;6375141;22;10527;-73
2023/05/27 11:28:46;;;;;;;;;8.00;8.00;;;;;;;;6374341;22;10889;-73
2023/05/27 11:31:12;;;;;;;;;6.25;6.25;;;;;;;;6375162;22;10719;-76
2023/05/27 11:33:40;;;;;;;;;10.50;9.50;;;;;;;;6374786;22;10619;-72
2023/05/27 11:36:11;;;;;;;;;7.00;7.00;;;;;;;;6375222;22;9497;-72
2023/05/27 11:38:53;;;;;;;;;10.25;8.50;;;;;;;;6374985;22;10643;-71
2023/05/27 11:41:19;;;;;;;;;10.00;8.50;;;;;;;;6374569;22;10517;-73
2023/05/27 11:43:48;;;;;;;;;9.00;8.00;;;;;;;;6374738;22;10566;-70
2023/05/27 11:46:13;;;;;;;;;7.25;7.00;;;;;;;;6374793;22;10716;-71
2023/05/27 11:48:38;;;;;;;;;7.25;6.25;;;;;;;;6346692;22;10786;-72
2023/05/27 11:51:04;;;;;;;;;9.25;8.25;;;;;;;;6374495;22;8772;-77
2023/05/27 11:53:30;;;;;;;;;11.25;8.00;;;;;;;;6375267;22;8782;-69
2023/05/27 11:55:55;;;;;;;;;8.00;8.00;;;;;;;;6373950;22;8775;-69
2023/05/27 11:58:20;;;;;;;;;10.75;7.75;;;;;;;;6373417;22;8735;-69
2023/05/27 12:00:45;;;;;;;;;9.50;9.00;;;;;;;;6373550;22;8844;-69
2023/05/27 12:03:11;;;;;;;;;8.25;6.75;;;;;;;;6373168;22;8736;-70
2023/05/27 12:05:36;;;;;;;;;10.00;9.00;;;;;;;;6372888;22;8756;-69
2023/05/27 12:08:01;;;;;;;;;7.50;7.50;;;;;;;;6373258;22;8755;-70
2023/05/27 12:10:26;;;;;;;;;11.50;9.75;;;;;;;;6372824;22;8850;-70
2023/05/27 12:12:51;;;;;;;;;5.00;5.00;;;;;;;;6344464;22;8783;-70
2023/05/27 12:15:17;;;;;;;;;9.00;9.00;;;;;;;;6373413;22;8744;-70
2023/05/27 12:17:42;;;;;;;;;12.50;9.50;;;;;;;;6373774;22;8846;-70
2023/05/27 12:20:08;;;;;;;;;8.00;7.00;;;;;;;;6373997;22;9504;-70
2023/05/27 12:22:33;;;;;;;;;10.50;9.75;;;;;;;;6373897;22;8748;-69
2023/05/27 12:24:58;;;;;;;;;15.25;13.25;;;;;;;;6375120;22;10562;-70
2023/05/27 12:27:23;;;;;;;;;9.00;9.00;;;;;;;;6375242;22;8772;-70
2023/05/27 12:29:49;;;;;;;;;8.75;8.50;;;;;;;;6374979;22;8747;-73
2023/05/27 12:32:14;;;;;;;;;8.75;8.00;;;;;;;;6374467;22;8752;-76
2023/05/27 12:34:39;;;;;;;;;8.00;8.00;;;;;;;;6374875;22;9616;-76
2023/05/27 12:37:05;;;;;;;;;8.00;7.00;;;;;;;;6374961;22;8778;-76
2023/05/27 12:39:30;;;;;;;;;10.50;9.50;;;;;;;;6374863;22;8831;-76
2023/05/27 12:41:55;;;;;;;;;10.50;10.50;;;;;;;;6374402;22;8748;-76
2023/05/27 12:44:21;;;;;;;;;9.75;9.75;;;;;;;;6374937;22;8752;-75
2023/05/27 12:46:46;;;;;;;;;11.75;10.00;;;;;;;;6374700;22;8852;-77
2023/05/27 12:49:11;;;;;;;;;14.75;9.00;;;;;;;;6374528;22;8748;-84
2023/05/27 12:51:38;;;;;;;;;11.50;9.25;;;;;;;;6374664;22;9609;-75
2023/05/27 12:54:03;;;;;;;;;10.50;9.50;;;;;;;;6375818;22;8720;-74
2023/05/27 12:56:28;;;;;;;;;13.50;10.00;;;;;;;;6375986;22;11096;-74
2023/05/27 12:58:54;;;;;;;;;8.25;7.25;;;;;;;;6376101;22;8833;-75
2023/05/27 13:01:19;;;;;;;;;10.25;9.75;;;;;;;;6376174;22;8767;-75
2023/05/27 13:03:44;;;;;;;;;3.00;3.00;;;;;;;;6375519;22;8760;-74
2023/05/27 13:06:09;;;;;;;;;17.00;14.50;;;;;;;;6375849;22;8756;-75
2023/05/27 13:08:34;;;;;;;;;8.50;8.50;;;;;;;;6376005;22;8736;-74
2023/05/27 13:11:00;;;;;;;;;12.75;11.25;;;;;;;;6375703;22;8768;-74
2023/05/27 13:13:26;;;;;;;;;12.00;10.00;;;;;;;;6375539;22;8752;-74
2023/05/27 13:15:51;;;;;;;;;4.75;4.75;;;;;;;;6375240;22;8743;-71
2023/05/27 13:18:16;;;;;;;;;10.00;9.00;;;;;;;;6375399;22;8752;-70
2023/05/27 13:20:41;;;;;;;;;11.00;10.25;;;;;;;;6374895;22;8858;-70
2023/05/27 13:23:07;;;;;;;;;6.75;6.75;;;;;;;;6376297;22;8778;-71
2023/05/27 13:25:32;;;;;;;;;7.50;5.50;;;;;;;;6375980;22;8846;-71
2023/05/27 13:27:57;;;;;;;;;7.00;7.00;;;;;;;;6375331;22;8825;-71
2023/05/27 13:30:22;;;;;;;;;8.75;8.75;;;;;;;;6375890;22;9619;-72
2023/05/27 13:32:48;;;;;;;;;8.00;8.00;;;;;;;;6375692;22;8783;-71
2023/05/27 13:35:14;;;;;;;;;12.25;12.25;;;;;;;;6376034;22;8739;-71
2023/05/27 13:37:39;;;;;;;;;11.75;9.50;;;;;;;;6375884;22;8748;-71
2023/05/27 13:40:05;;;;;;;;;10.25;10.00;;;;;;;;6375929;22;8744;-71
2023/05/27 13:42:32;;;;;;;;;9.00;8.00;;;;;;;;6375790;22;8874;-71
2023/05/27 13:44:57;;;;;;;;;9.25;7.00;;;;;;;;6375511;22;10854;-71
2023/05/27 13:47:22;;;;;;;;;10.50;10.50;;;;;;;;6376212;22;8739;-71
2023/05/27 13:49:49;;;;;;;;;9.25;8.50;;;;;;;;6375800;22;8768;-71
2023/05/27 13:52:14;;;;;;;;;13.00;11.00;;;;;;;;6375778;22;8756;-70
2023/05/27 13:54:39;;;;;;;;;9.25;8.00;;;;;;;;6376054;22;11022;-70
2023/05/27 13:57:04;;;;;;;;;12.00;9.00;;;;;;;;6376071;22;9901;-70
2023/05/27 13:59:29;;;;;;;;;12.75;12.75;;;;;;;;6376288;22;8758;-70
2023/05/27 14:01:55;;;;;;;;;9.75;9.50;;;;;;;;6376175;22;8756;-70
2023/05/27 14:04:20;;;;;;;;;12.00;11.00;;;;;;;;6347758;22;9900;-70
2023/05/27 14:06:45;;;;;;;;;9.00;7.25;;;;;;;;6376009;22;8805;-70
2023/05/27 14:09:11;;;;;;;;;9.25;8.25;;;;;;;;6375997;22;8786;-70
2023/05/27 14:11:36;;;;;;;;;8.50;7.50;;;;;;;;6375712;22;8803;-70
2023/05/27 14:14:01;;;;;;;;;11.25;10.50;;;;;;;;6376165;22;8812;-70
2023/05/27 14:16:26;;;;;;;;;12.00;10.25;;;;;;;;6375849;22;9476;-70
2023/05/27 14:18:52;;;;;;;;;8.25;6.75;;;;;;;;6375949;22;8813;-70
2023/05/27 14:21:17;;;;;;;;;10.00;10.00;;;;;;;;6376074;22;8744;-70
2023/05/27 14:23:43;;;;;;;;;9.25;8.75;;;;;;;;6375798;22;8755;-71
2023/05/27 14:26:08;;;;;;;;;12.25;10.75;;;;;;;;6375636;22;8868;-70
2023/05/27 14:28:34;;;;;;;;;11.25;8.50;;;;;;;;6375515;22;11248;-70
2023/05/27 14:30:59;;;;;;;;;8.75;8.75;;;;;;;;6375512;22;9488;-70
2023/05/27 14:33:24;;;;;;;;;7.50;7.50;;;;;;;;6375390;22;8775;-70
2023/05/27 14:35:50;;;;;;;;;10.75;10.00;;;;;;;;6375555;22;8752;-71
2023/05/27 14:38:16;;;;;;;;;12.00;12.00;;;;;;;;6347586;22;8838;-71
2023/05/27 14:40:43;;;;;;;;;10.25;8.25;;;;;;;;6374807;22;8740;-70
2023/05/27 14:43:08;;;;;;;;;10.75;10.75;;;;;;;;6375608;22;10790;-70
2023/05/27 14:45:33;;;;;;;;;9.75;9.75;;;;;;;;6375442;22;10949;-71
2023/05/27 14:47:59;;;;;;;;;10.75;9.75;;;;;;;;6375497;22;9518;-70
2023/05/27 14:50:24;;;;;;;;;14.25;12.25;;;;;;;;6375722;22;9956;-71
2023/05/27 14:52:50;;;;;;;;;11.50;9.00;;;;;;;;6375683;22;8852;-70
2023/05/27 14:55:15;;;;;;;;;10.75;9.00;;;;;;;;6375035;22;8729;-70
2023/05/27 14:57:40;;;;;;;;;13.25;10.00;;;;;;;;6375786;22;8836;-70
2023/05/27 15:00:08;;;;;;;;;11.50;11.50;;;;;;;;6375148;22;8774;-71
2023/05/27 15:02:33;;;;;;;;;9.75;7.00;;;;;;;;6375434;22;8735;-71
2023/05/27 15:04:58;;;;;;;;;9.75;9.75;;;;;;;;6375163;22;11063;-70
2023/05/27 15:07:23;;;;;;;;;11.25;9.00;;;;;;;;6375654;22;9539;-70
2023/05/27 15:09:48;;;;;;;;;12.25;12.25;;;;;;;;6375264;22;8764;-70
2023/05/27 15:12:14;;;;;;;;;12.75;12.00;;;;;;;;6346791;22;9480;-70
2023/05/27 15:14:39;;;;;;;;;9.50;9.50;;;;;;;;6374734;22;8740;-70
2023/05/27 15:17:05;;;;;;;;;10.25;8.50;;;;;;;;6375606;22;8752;-70
2023/05/27 15:19:30;;;;;;;;;1.50;1.50;;;;;;;;6375623;22;8821;-70
2023/05/27 15:21:55;;;;;;;;;11.25;11.00;;;;;;;;6375437;22;8775;-70
2023/05/27 15:24:20;;;;;;;;;13.00;11.50;;;;;;;;6375327;22;8752;-70
2023/05/27 15:26:45;;;;;;;;;13.50;12.75;;;;;;;;6375069;22;8795;-70
2023/05/27 15:29:11;;;;;;;;;11.25;9.50;;;;;;;;6374612;22;8760;-70
2023/05/27 15:31:36;;;;;;;;;8.25;8.25;;;;;;;;6374914;22;8814;-71
2023/05/27 15:34:02;;;;;;;;;4.75;3.50;;;;;;;;6375385;22;8756;-76
2023/05/27 15:36:27;;;;;;;;;11.50;10.25;;;;;;;;6372707;22;8834;-71
2023/05/27 15:38:52;;;;;;;;;10.50;10.00;;;;;;;;6374457;22;8752;-71
2023/05/27 15:41:17;;;;;;;;;11.00;9.75;;;;;;;;6374714;22;8791;-71
2023/05/27 15:43:43;;;;;;;;;7.25;7.00;;;;;;;;6374830;22;8759;-71
2023/05/27 15:46:08;;;;;;;;;6.25;5.75;;;;;;;;6375278;22;9504;-71
2023/05/27 15:48:33;;;;;;;;;9.25;9.25;;;;;;;;6375378;22;8759;-71
2023/05/27 15:50:58;;;;;;;;;9.00;9.00;;;;;;;;6346415;22;8799;-71
2023/05/27 15:53:24;;;;;;;;;6.75;6.75;;;;;;;;6375992;22;8791;-71
2023/05/27 15:55:49;;;;;;;;;12.50;10.50;;;;;;;;6376371;22;8817;-71
2023/05/27 15:58:14;;;;;;;;;14.25;14.25;;;;;;;;6375909;22;8752;-71
2023/05/27 16:00:39;;;;;;;;;7.50;6.50;;;;;;;;6373865;22;8786;-72
2023/05/27 16:03:05;;;;;;;;;10.25;10.25;;;;;;;;6375528;22;8871;-72
2023/05/27 16:05:30;;;;;;;;;12.50;11.25;;;;;;;;6376308;22;8763;-72
2023/05/27 16:07:56;;;;;;;;;5.00;5.00;;;;;;;;6376301;22;8842;-72
2023/05/27 16:10:21;;;;;;;;;8.25;7.75;;;;;;;;6375832;22;8768;-72
2023/05/27 16:12:46;;;;;;;;;9.00;9.00;;;;;;;;6375979;22;8779;-72
2023/05/27 16:15:12;;;;;;;;;7.00;7.00;;;;;;;;6376074;22;8767;-71
2023/05/27 16:17:37;;;;;;;;;7.25;7.25;;;;;;;;6375555;22;8740;-71
2023/05/27 16:20:03;;;;;;;;;9.00;8.50;;;;;;;;6374871;22;8755;-71
2023/05/27 16:22:28;;;;;;;;;9.50;9.50;;;;;;;;6374586;22;8768;-70
2023/05/27 16:24:53;;;;;;;;;8.00;8.00;;;;;;;;6346031;22;9725;-73
2023/05/27 16:27:18;;;;;;;;;9.00;9.00;;;;;;;;6374002;22;8766;-72
2023/05/27 16:29:44;;;;;;;;;6.75;6.75;;;;;;;;6374416;22;8763;-70
2023/05/27 16:32:09;;;;;;;;;9.00;9.00;;;;;;;;6373198;22;8892;-70
2023/05/27 16:34:34;;;;;;;;;8.00;8.00;;;;;;;;6373681;22;8752;-71
2023/05/27 16:37:00;;;;;;;;;12.00;10.50;;;;;;;;6374584;22;8862;-72
2023/05/27 16:39:25;;;;;;;;;8.00;7.75;;;;;;;;6374073;22;8770;-71
2023/05/27 16:41:53;;;;;;;;;9.75;8.50;;;;;;;;6375225;22;8755;-74
2023/05/27 16:44:18;;;;;;;;;9.25;7.50;;;;;;;;6376225;22;8736;-74
2023/05/27 16:46:44;;;;;;;;;6.25;5.50;;;;;;;;6376213;22;10776;-73
2023/05/27 16:49:09;;;;;;;;;8.25;8.25;;;;;;;;6375952;22;8786;-73
2023/05/27 16:51:35;;;;;;;;;12.00;10.00;;;;;;;;6375706;22;8760;-73
2023/05/27 16:54:00;;;;;;;;;14.00;11.50;;;;;;;;6375290;22;9503;-73
2023/05/27 16:56:26;;;;;;;;;9.50;8.75;;;;;;;;6376521;22;8886;-73
2023/05/27 16:58:54;;;;;;;;;7.75;6.00;;;;;;;;6376058;22;8724;-73
2023/05/27 17:01:20;;;;;;;;;12.25;9.00;;;;;;;;6375707;22;11301;-74
2023/05/27 17:03:45;;;;;;;;;9.25;9.00;;;;;;;;6375551;22;11575;-72
2023/05/27 17:06:10;;;;;;;;;9.50;9.50;;;;;;;;6376549;22;8744;-72
2023/05/27 17:08:35;;;;;;;;;13.00;11.00;;;;;;;;6375246;22;9455;-72
2023/05/27 17:11:01;;;;;;;;;10.50;10.00;;;;;;;;6376124;22;8852;-73
2023/05/27 17:13:27;;;;;;;;;11.00;11.00;;;;;;;;6375973;22;8787;-72
2023/05/27 17:15:53;;;;;;;;;10.00;10.00;;;;;;;;6375468;22;8716;-72
2023/05/27 17:18:19;;;;;;;;;2.50;2.00;;;;;;;;6375705;22;11534;-71
2023/05/27 17:20:44;;;;;;;;;13.25;11.25;;;;;;;;6347038;22;10671;-71
2023/05/27 17:23:09;;;;;;;;;10.75;9.25;;;;;;;;6375603;22;8790;-71
2023/05/27 17:25:35;;;;;;;;;3.00;3.00;;;;;;;;6375872;22;8835;-71
2023/05/27 17:28:00;;;;;;;;;10.50;8.50;;;;;;;;6374338;22;8821;-71
2023/05/27 17:30:25;;;;;;;;;16.25;14.00;;;;;;;;6375619;22;8779;-70
2023/05/27 17:32:50;;;;;;;;;17.50;17.00;;;;;;;;6376241;22;8768;-70
2023/05/27 17:35:15;;;;;;;;;10.00;9.00;;;;;;;;6376458;22;8783;-70
2023/05/27 17:37:41;;;;;;;;;13.25;12.25;;;;;;;;6320992;22;8941;-71
2023/05/27 17:40:08;;;;;;;;;9.75;9.75;;;;;;;;6376129;22;8752;-72
2023/05/27 17:42:34;;;;;;;;;10.00;9.75;;;;;;;;6375162;22;8752;-71
2023/05/27 17:44:59;;;;;;;;;9.00;9.00;;;;;;;;6374981;22;10924;-72
2023/05/27 17:47:24;;;;;;;;;8.75;8.75;;;;;;;;6347170;22;8948;-71
2023/05/27 17:49:49;;;;;;;;;14.75;13.75;;;;;;;;6374564;22;9614;-71
2023/05/27 17:52:15;;;;;;;;;11.75;11.50;;;;;;;;6374850;22;8767;-70
2023/05/27 17:54:41;;;;;;;;;10.50;10.50;;;;;;;;6374701;22;8717;-71
2023/05/27 17:57:06;;;;;;;;;12.50;9.50;;;;;;;;6374021;22;11629;-72
2023/05/27 17:59:32;;;;;;;;;11.50;10.50;;;;;;;;6371847;22;8744;-84
2023/05/27 18:01:57;;;;;;;;;9.75;7.25;;;;;;;;6373518;22;9722;-76
2023/05/27 18:04:22;;;;;;;;;10.25;8.50;;;;;;;;6373883;22;8798;-76
2023/05/27 18:06:47;;;;;;;;;9.25;9.25;;;;;;;;6345249;22;8779;-77
2023/05/27 18:09:13;;;;;;;;;14.50;10.75;;;;;;;;6374073;22;8800;-76
2023/05/27 18:11:40;;;;;;;;;9.50;9.50;;;;;;;;6345666;22;8755;-76
2023/05/27 18:14:06;;;;;;;;;7.50;7.50;;;;;;;;6373929;22;10920;-76
2023/05/27 18:16:31;;;;;;;;;11.00;10.25;;;;;;;;6373278;22;10890;-75
2023/05/27 18:18:56;;;;;;;;;13.50;11.00;;;;;;;;6373940;22;9493;-75
2023/05/27 18:21:21;;;;;;;;;9.25;9.25;;;;;;;;6372952;22;8768;-74
2023/05/27 18:23:47;;;;;;;;;10.25;9.25;;;;;;;;6373872;22;8778;-74
2023/05/27 18:26:12;;;;;;;;;15.25;11.00;;;;;;;;6373889;22;8854;-74
2023/05/27 18:28:37;;;;;;;;;12.75;11.50;;;;;;;;6372460;22;8808;-73
2023/05/27 18:31:02;;;;;;;;;13.50;8.00;;;;;;;;6373907;22;8760;-76
2023/05/27 18:33:27;;;;;;;;;11.25;8.50;;;;;;;;6373984;22;8751;-73
2023/05/27 18:35:53;;;;;;;;;12.50;12.50;;;;;;;;6373159;22;8771;-72
2023/05/27 18:38:18;;;;;;;;;9.75;8.00;;;;;;;;6374212;22;8772;-72
2023/05/27 18:40:43;;;;;;;;;10.50;8.00;;;;;;;;6374260;22;9992;-77
2023/05/27 18:43:08;;;;;;;;;14.25;13.25;;;;;;;;6373863;22;8783;-76
2023/05/27 18:45:49;;;;;;;;;19.50;14.50;;;;;;;;6373933;22;8840;-72
2023/05/27 18:48:14;;;;;;;;;10.25;9.75;;;;;;;;6371289;22;8728;-74
2023/05/27 18:50:39;;;;;;;;;16.50;16.25;;;;;;;;6369746;22;11006;-72
2023/05/27 18:53:04;;;;;;;;;40.00;31.75;;;;;;;;6374144;22;8796;-72
2023/05/27 18:55:30;;;;;;;;;42.25;35.00;;;;;;;;6372915;22;8767;-73
2023/05/27 18:57:55;;;;;;;;;27.25;25.50;;;;;;;;6375060;22;8798;-72
2023/05/27 19:00:21;;;;;;;;;19.50;18.50;;;;;;;;6375108;22;8784;-73
2023/05/27 19:02:46;;;;;;;;;14.00;13.25;;;;;;;;6374984;22;8811;-72
2023/05/27 19:05:11;;;;;;;;;21.75;18.75;;;;;;;;6374930;22;8760;-73
2023/05/27 19:07:36;;;;;;;;;16.75;14.50;;;;;;;;6346944;22;8779;-73
2023/05/27 19:10:03;;;;;;;;;13.00;10.25;;;;;;;;6375556;22;8744;-73
2023/05/27 19:12:28;;;;;;;;;16.00;14.50;;;;;;;;6375105;22;8755;-72
2023/05/27 19:14:53;;;;;;;;;19.75;19.75;;;;;;;;6347021;22;11471;-73
2023/05/27 19:17:18;;;;;;;;;20.00;19.25;;;;;;;;6375273;22;8772;-73
2023/05/27 19:19:45;;;;;;;;;16.25;15.00;;;;;;;;6374780;22;8748;-74
2023/05/27 19:22:10;;;;;;;;;22.50;17.50;;;;;;;;6374890;22;8725;-73
2023/05/27 19:24:35;;;;;;;;;14.75;14.75;;;;;;;;6374071;22;11475;-71
2023/05/27 19:27:01;;;;;;;;;15.75;15.75;;;;;;;;6375448;22;8801;-71
2023/05/27 19:29:26;;;;;;;;;24.00;16.50;;;;;;;;6376518;22;8802;-72
2023/05/27 19:31:52;;;;;;;;;18.25;17.50;;;;;;;;6376901;22;8896;-72
2023/05/27 19:34:17;;;;;;;;;19.50;18.25;;;;;;;;6376243;22;8767;-70
2023/05/27 19:36:42;;;;;;;;;16.25;15.00;;;;;;;;6377004;22;9668;-71
2023/05/27 19:39:07;;;;;;;;;17.25;13.50;;;;;;;;6377448;22;8740;-72
2023/05/27 19:41:32;;;;;;;;;14.50;13.00;;;;;;;;6377069;22;8802;-71
2023/05/27 19:43:57;;;;;;;;;12.25;10.00;;;;;;;;6377051;22;8760;-71
2023/05/27 19:46:23;;;;;;;;;15.25;14.50;;;;;;;;6376861;22;8760;-71
2023/05/27 19:48:48;;;;;;;;;21.75;15.75;;;;;;;;6376403;22;8875;-72
2023/05/27 19:51:14;;;;;;;;;23.75;19.75;;;;;;;;6377211;22;8767;-72
2023/05/27 19:53:41;;;;;;;;;17.50;15.50;;;;;;;;6377099;22;8767;-71
2023/05/27 19:56:07;;;;;;;;;20.50;18.75;;;;;;;;6376868;22;8743;-73
2023/05/27 19:58:33;;;;;;;;;17.00;16.25;;;;;;;;6376592;22;11077;-72
2023/05/27 20:00:58;;;;;;;;;15.25;14.00;;;;;;;;6377313;22;8827;-74
2023/05/27 20:03:24;;;;;;;;;23.00;20.25;;;;;;;;6376352;22;8910;-74
2023/05/27 20:05:50;;;;;;;;;17.75;16.50;;;;;;;;6376751;22;8748;-71
2023/05/27 20:08:16;;;;;;;;;22.25;17.75;;;;;;;;6349067;22;8766;-70
2023/05/27 20:10:41;;;;;;;;;15.25;14.75;;;;;;;;6377766;22;11369;-72
2023/05/27 20:13:06;;;;;;;;;15.00;13.00;;;;;;;;6377784;22;8760;-72
2023/05/27 20:15:31;;;;;;;;;20.25;17.75;;;;;;;;6378353;22;8782;-70
2023/05/27 20:17:59;;;;;;;;;13.75;12.25;;;;;;;;6349734;22;8770;-72
2023/05/27 20:20:30;;;;;;;;;14.00;13.25;;;;;;;;6377976;22;8704;-71
2023/05/27 20:22:56;;;;;;;;;12.50;12.50;;;;;;;;6377803;22;11492;-71
2023/05/27 20:25:21;;;;;;;;;12.50;12.50;;;;;;;;6377893;22;11110;-72
2023/05/27 20:27:46;;;;;;;;;12.00;11.25;;;;;;;;6377046;22;8762;-71
2023/05/27 20:30:11;;;;;;;;;15.00;15.00;;;;;;;;6378186;22;8756;-71
2023/05/27 20:32:37;;;;;;;;;14.50;10.75;;;;;;;;6377403;22;8763;-70
2023/05/27 20:35:04;;;;;;;;;6.75;6.50;;;;;;;;6378112;22;8705;-70
2023/05/27 20:37:30;;;;;;;;;12.25;12.00;;;;;;;;6377279;22;11050;-70
2023/05/27 20:39:55;;;;;;;;;15.00;13.00;;;;;;;;6375860;22;10904;-70
2023/05/27 20:42:20;;;;;;;;;14.75;12.25;;;;;;;;6376224;22;8775;-71
2023/05/27 20:44:46;;;;;;;;;15.25;13.00;;;;;;;;6376135;22;8763;-70
2023/05/27 20:47:11;;;;;;;;;13.50;12.75;;;;;;;;6373338;22;8723;-78
2023/05/27 23:06:57;;;;;;;;;10.50;9.50;;;;;;;;5163966;22;11020;-70
2023/05/27 23:09:22;;;;;;;;;12.25;10.25;;;;;;;;6250672;22;11445;-70
2023/05/27 23:11:47;;;;;;;;;10.50;9.75;;;;;;;;6250429;22;8766;-69
2023/05/27 23:14:12;;;;;;;;;8.00;8.00;;;;;;;;6250536;22;8804;-69
2023/05/27 23:16:38;;;;;;;;;12.25;9.75;;;;;;;;6249997;22;8869;-70
2023/05/27 23:19:03;;;;;;;;;10.50;7.50;;;;;;;;6250131;22;8750;-69
2023/05/27 23:21:28;;;;;;;;;10.25;9.25;;;;;;;;6249212;22;8780;-69
2023/05/27 23:23:53;;;;;;;;;10.25;8.75;;;;;;;;6250664;22;8764;-69
2023/05/27 23:26:18;;;;;;;;;12.25;11.00;;;;;;;;6222247;22;8778;-69
2023/05/27 23:28:43;;;;;;;;;10.00;9.25;;;;;;;;6250505;22;8730;-69
2023/05/27 23:31:09;;;;;;;;;12.75;11.25;;;;;;;;6249621;22;8777;-69
2023/05/27 23:33:34;;;;;;;;;8.75;8.00;;;;;;;;6250779;22;8876;-69
2023/05/27 23:35:59;;;;;;;;;7.50;5.50;;;;;;;;6249372;22;8762;-70
2023/05/27 23:38:24;;;;;;;;;8.50;8.25;;;;;;;;6250553;22;8758;-69
2023/05/27 23:40:50;;;;;;;;;11.50;7.75;;;;;;;;6249455;22;8864;-69
2023/05/27 23:43:15;;;;;;;;;15.75;11.50;;;;;;;;6247277;22;8924;-69
2023/05/27 23:45:40;;;;;;;;;7.75;7.75;;;;;;;;6242168;22;8789;-70
2023/05/27 23:48:05;;;;;;;;;10.25;8.75;;;;;;;;6250535;22;8761;-69
2023/05/27 23:50:31;;;;;;;;;8.00;8.00;;;;;;;;6249590;22;8776;-69
2023/05/27 23:52:56;;;;;;;;;9.00;9.00;;;;;;;;6249872;22;8780;-70
2023/05/27 23:55:22;;;;;;;;;10.75;9.50;;;;;;;;6250163;22;8876;-70
2023/05/27 23:57:47;;;;;;;;;8.75;8.75;;;;;;;;6247749;22;8742;-70
